Time;durP1;ratioP1;P1;durP2;ratioP2;P2;SDS_P1;SDS_P2;PMS_P1;PMS_P2;Temp;Humidity;BMP_temperature;BMP_pressure;BME280_temperature;BME280_humidity;BME280_pressure;Samples;Min_cycle;Max_cycle;Signal;HPM_P1;HPM_P2
2022/01/21 00:01:21;;;;;;;13.63;2.25;;;1.70;99.90;;;;;;5067984;28;20027;-89
2022/01/21 00:03:47;;;;;;;15.20;2.45;;;1.70;99.90;;;;;;5043859;28;20490;-88
2022/01/21 00:06:13;;;;;;;16.25;2.10;;;1.70;99.90;;;;;;5041250;28;20037;-88
2022/01/21 00:08:41;;;;;;;15.85;1.88;;;1.80;99.90;;;;;;5045395;28;20047;-89
2022/01/21 00:11:08;;;;;;;13.15;1.85;;;1.70;99.90;;;;;;5058583;28;20115;-88
2022/01/21 00:13:34;;;;;;;12.73;1.77;;;1.80;99.90;;;;;;5066004;28;20040;-89
2022/01/21 00:16:02;;;;;;;12.73;1.98;;;1.70;99.90;;;;;;5059870;28;20036;-88
2022/01/21 00:18:28;;;;;;;13.63;3.85;;;1.70;99.90;;;;;;5043286;28;20029;-89
2022/01/21 00:31:54;;;;;;;11.70;2.33;;;1.70;99.90;;;;;;5095047;28;20044;-89
2022/01/21 00:34:20;;;;;;;19.55;2.20;;;1.70;99.90;;;;;;5049168;28;20036;-89
2022/01/21 00:36:46;;;;;;;12.93;1.98;;;1.70;99.90;;;;;;5064308;28;20072;-89
2022/01/21 00:39:12;;;;;;;14.95;2.30;;;1.80;99.90;;;;;;5067043;28;20044;-89
2022/01/21 00:41:47;;;;;;;13.85;2.10;;;1.80;99.90;;;;;;5071359;28;20048;-89
2022/01/21 00:44:13;;;;;;;21.05;3.35;;;1.90;99.90;;;;;;5062815;28;20041;-89
2022/01/21 00:46:38;;;;;;;17.75;2.88;;;2.00;99.90;;;;;;5062667;28;20089;-89
2022/01/21 00:49:04;;;;;;;16.92;2.03;;;2.00;99.90;;;;;;5061828;28;20522;-88
2022/01/21 00:51:30;;;;;;;18.95;2.08;;;2.10;99.90;;;;;;5043992;28;20028;-89
2022/01/21 00:53:55;;;;;;;13.45;2.88;;;2.10;99.90;;;;;;5043085;28;20075;-87
2022/01/21 00:56:21;;;;;;;8.18;1.80;;;2.20;99.90;;;;;;5066493;28;20052;-88
2022/01/21 00:58:47;;;;;;;17.63;2.85;;;2.20;99.90;;;;;;5046712;28;20044;-89
2022/01/21 01:01:12;;;;;;;17.75;2.75;;;2.20;99.90;;;;;;5066396;28;20093;-89
2022/01/21 01:03:38;;;;;;;18.60;3.03;;;2.20;99.90;;;;;;5063149;28;20685;-89
2022/01/21 01:06:04;;;;;;;18.20;2.05;;;2.20;99.90;;;;;;5042747;28;20062;-89
2022/01/21 01:08:30;;;;;;;14.98;2.33;;;2.20;99.90;;;;;;5065752;28;20116;-89
2022/01/21 01:21:34;;;;;;;14.55;2.42;;;2.30;99.90;;;;;;5054942;28;20048;-89
2022/01/21 01:29:38;;;;;;;13.35;1.83;;;2.30;99.90;;;;;;4985756;28;20048;-89
2022/01/21 01:32:06;;;;;;;15.75;2.70;;;2.30;99.90;;;;;;4978031;28;20029;-89
2022/01/21 01:34:31;;;;;;;12.93;2.42;;;2.30;99.90;;;;;;5020500;28;20040;-89
2022/01/21 01:37:01;;;;;;;11.35;1.67;;;2.20;99.90;;;;;;5043661;28;20166;-89
2022/01/21 01:39:40;;;;;;;11.65;1.75;;;2.20;99.90;;;;;;5063805;28;20036;-90
2022/01/21 01:50:06;;;;;;;12.32;2.10;;;2.20;99.90;;;;;;5064103;28;20041;-89
2022/01/21 01:52:33;;;;;;;13.30;1.60;;;2.10;99.90;;;;;;5043098;28;20036;-90
2022/01/21 01:54:59;;;;;;;12.20;1.38;;;2.00;99.90;;;;;;5063351;28;20131;-89
2022/01/21 01:57:24;;;;;;;13.65;1.88;;;2.00;99.90;;;;;;5041340;28;20033;-90
2022/01/21 01:59:50;;;;;;;12.75;2.75;;;2.00;99.90;;;;;;5042511;28;20201;-89
2022/01/21 02:02:18;;;;;;;12.45;1.50;;;2.00;99.90;;;;;;5059234;28;20068;-88
2022/01/21 02:04:46;;;;;;;14.15;2.00;;;2.00;99.90;;;;;;5046871;28;20530;-89
2022/01/21 02:07:12;;;;;;;18.67;1.88;;;2.10;99.90;;;;;;5041261;28;20085;-89
2022/01/21 02:09:39;;;;;;;15.10;1.80;;;2.20;99.90;;;;;;5067591;28;20047;-89
2022/01/21 02:12:05;;;;;;;11.00;1.60;;;2.20;99.90;;;;;;5045043;28;20036;-89
2022/01/21 02:14:35;;;;;;;13.77;1.60;;;2.20;99.90;;;;;;5048237;28;20047;-90
2022/01/21 02:22:17;;;;;;;11.90;2.55;;;2.20;99.90;;;;;;5064138;28;20052;-89
2022/01/21 02:24:50;;;;;;;9.07;1.67;;;2.20;99.90;;;;;;5060997;28;20544;-89
2022/01/21 02:27:16;;;;;;;14.00;2.42;;;2.30;99.90;;;;;;5056358;28;20051;-89
2022/01/21 02:29:48;;;;;;;8.52;1.60;;;2.20;99.90;;;;;;5044569;28;20041;-87
2022/01/21 02:32:15;;;;;;;13.45;1.90;;;2.30;99.90;;;;;;5080421;28;20037;-89
2022/01/21 02:34:41;;;;;;;13.27;1.60;;;2.30;99.90;;;;;;5044692;28;20041;-89
2022/01/21 02:37:09;;;;;;;10.82;1.13;;;2.30;99.90;;;;;;5042127;28;20040;-89
2022/01/21 02:39:35;;;;;;;11.13;2.17;;;2.30;99.90;;;;;;5049922;28;20059;-90
2022/01/21 02:42:01;;;;;;;6.25;0.98;;;2.40;99.90;;;;;;5061474;28;20474;-88
2022/01/21 02:44:26;;;;;;;6.88;1.17;;;2.50;99.90;;;;;;5058912;28;20521;-90
2022/01/21 02:46:56;;;;;;;5.85;1.20;;;2.50;99.90;;;;;;5045349;28;20404;-89
2022/01/21 02:49:22;;;;;;;4.07;0.70;;;2.50;99.90;;;;;;5046236;28;20040;-90
2022/01/21 02:51:48;;;;;;;5.32;0.65;;;2.60;99.90;;;;;;5075780;28;20039;-89
2022/01/21 02:54:14;;;;;;;6.07;0.70;;;2.60;99.90;;;;;;5042286;28;20158;-90
2022/01/21 02:56:40;;;;;;;5.75;0.70;;;2.60;99.90;;;;;;5047000;28;20040;-90
2022/01/21 02:59:07;;;;;;;3.58;0.82;;;2.60;99.90;;;;;;5040826;28;20040;-89
2022/01/21 03:01:35;;;;;;;4.53;0.70;;;2.60;99.90;;;;;;5064631;28;20051;-90
2022/01/21 03:04:03;;;;;;;7.28;1.90;;;2.50;99.90;;;;;;5043243;28;20037;-89
2022/01/21 03:06:30;;;;;;;5.85;0.90;;;2.50;99.90;;;;;;5071100;28;20101;-90
2022/01/21 03:08:58;;;;;;;6.60;1.27;;;2.50;99.90;;;;;;5050487;28;20028;-89
2022/01/21 03:11:26;;;;;;;8.27;1.20;;;2.50;99.90;;;;;;5061094;28;20029;-90
2022/01/21 03:13:52;;;;;;;4.85;0.90;;;2.40;99.90;;;;;;5047440;28;20048;-89
2022/01/21 03:16:18;;;;;;;4.30;0.60;;;2.40;99.90;;;;;;5064014;28;20035;-90
2022/01/21 03:18:44;;;;;;;9.15;1.08;;;2.40;99.90;;;;;;5045852;28;20090;-90
2022/01/21 03:21:15;;;;;;;8.85;1.38;;;2.40;99.90;;;;;;5049892;28;20131;-90
2022/01/21 03:23:43;;;;;;;12.95;1.42;;;2.40;99.90;;;;;;5046061;28;20040;-89
2022/01/21 03:26:09;;;;;;;7.80;0.90;;;2.40;99.90;;;;;;5062583;28;20486;-89
2022/01/21 03:28:34;;;;;;;7.32;0.98;;;2.30;99.90;;;;;;5066581;28;20037;-89
2022/01/21 03:31:00;;;;;;;8.73;0.90;;;2.30;99.90;;;;;;5064385;28;20091;-89
2022/01/21 03:33:26;;;;;;;7.82;1.38;;;2.30;99.90;;;;;;5048717;28;20052;-89
2022/01/21 03:35:53;;;;;;;6.93;1.10;;;2.30;99.90;;;;;;5069529;28;20067;-90
2022/01/21 03:38:20;;;;;;;8.68;1.25;;;2.30;99.90;;;;;;5049953;28;20028;-89
2022/01/21 03:40:46;;;;;;;10.27;1.33;;;2.30;99.90;;;;;;5063484;28;20116;-90
2022/01/21 03:43:12;;;;;;;9.45;1.30;;;2.20;99.90;;;;;;5065727;28;20119;-89
2022/01/21 03:45:38;;;;;;;8.80;1.38;;;2.20;99.90;;;;;;5047544;28;20398;-90
2022/01/21 03:48:05;;;;;;;8.88;1.15;;;2.30;99.90;;;;;;5085286;28;20043;-90
2022/01/21 03:50:32;;;;;;;12.60;2.00;;;2.30;99.90;;;;;;5054411;28;20108;-90
2022/01/21 03:52:59;;;;;;;8.90;1.50;;;2.20;99.90;;;;;;5060295;28;20112;-90
2022/01/21 03:55:25;;;;;;;7.43;1.17;;;2.20;99.90;;;;;;5044648;28;20419;-90
2022/01/21 03:57:51;;;;;;;5.63;1.10;;;2.30;99.90;;;;;;5064176;28;20037;-90
2022/01/21 04:00:24;;;;;;;11.90;0.90;;;2.30;99.90;;;;;;5045371;28;20052;-90
2022/01/21 04:02:50;;;;;;;7.32;0.75;;;2.20;99.90;;;;;;5047647;28;20076;-89
2022/01/21 04:05:16;;;;;;;10.32;1.30;;;2.20;99.90;;;;;;5067125;28;20075;-90
2022/01/21 04:07:42;;;;;;;8.20;1.00;;;2.20;99.90;;;;;;5067104;28;20394;-89
2022/01/21 04:10:08;;;;;;;9.88;1.23;;;2.20;99.90;;;;;;5043302;28;20036;-89
2022/01/21 04:12:34;;;;;;;4.95;0.80;;;2.20;99.90;;;;;;5047122;28;20139;-89
2022/01/21 04:14:59;;;;;;;9.57;0.80;;;2.10;99.90;;;;;;5042450;28;20522;-90
2022/01/21 04:17:26;;;;;;;8.55;1.00;;;2.10;99.90;;;;;;5061180;28;20044;-89
2022/01/21 04:19:52;;;;;;;7.07;1.20;;;2.10;99.90;;;;;;5048968;28;20558;-90
2022/01/21 04:22:17;;;;;;;12.30;0.98;;;2.10;99.90;;;;;;5062126;28;20051;-90
2022/01/21 04:24:48;;;;;;;10.55;1.25;;;2.00;99.90;;;;;;5062099;28;20044;-88
2022/01/21 04:27:15;;;;;;;8.18;1.05;;;2.10;99.90;;;;;;5048689;28;20066;-89
2022/01/21 04:29:41;;;;;;;9.88;1.42;;;2.00;99.90;;;;;;5047603;28;20546;-90
2022/01/21 04:32:07;;;;;;;9.18;0.90;;;2.00;99.90;;;;;;5065295;28;20033;-89
2022/01/21 04:34:33;;;;;;;7.50;1.50;;;2.00;99.90;;;;;;5041141;28;20082;-90
2022/01/21 04:37:00;;;;;;;6.95;1.10;;;2.00;99.90;;;;;;5047164;28;20044;-90
2022/01/21 04:39:31;;;;;;;8.60;1.10;;;2.00;99.90;;;;;;5048659;28;20058;-90
2022/01/21 04:47:26;;;;;;;8.13;1.00;;;1.90;99.90;;;;;;5063458;28;20533;-90
2022/01/21 04:49:52;;;;;;;8.32;1.10;;;2.00;99.90;;;;;;5097450;28;20111;-90
2022/01/21 04:52:18;;;;;;;13.73;1.10;;;2.00;99.90;;;;;;5049900;28;20063;-90
2022/01/21 04:54:44;;;;;;;10.57;1.10;;;1.90;99.90;;;;;;5049701;28;20075;-89
2022/01/21 04:57:09;;;;;;;9.52;1.25;;;2.00;99.90;;;;;;5047495;28;20041;-90
2022/01/21 04:59:36;;;;;;;11.63;1.40;;;2.00;99.90;;;;;;5048558;28;20090;-89
2022/01/21 05:02:02;;;;;;;10.48;1.30;;;2.00;99.90;;;;;;5065514;28;20086;-89
2022/01/21 05:04:28;;;;;;;14.65;2.05;;;1.90;99.90;;;;;;5044367;28;20037;-90
2022/01/21 05:06:54;;;;;;;11.80;2.08;;;1.90;99.90;;;;;;5065981;28;20028;-89
2022/01/21 05:09:28;;;;;;;25.40;2.67;;;1.90;99.90;;;;;;5047779;28;20032;-89
2022/01/21 05:11:55;;;;;;;12.15;1.50;;;1.90;99.90;;;;;;5063729;28;20032;-90
2022/01/21 05:14:25;;;;;;;10.27;1.73;;;1.80;99.90;;;;;;5043469;28;20074;-90
2022/01/21 05:16:59;;;;;;;12.35;1.40;;;1.80;99.90;;;;;;5055716;28;20904;-90
2022/01/21 05:19:28;;;;;;;11.07;1.38;;;1.80;99.90;;;;;;5078416;28;20109;-89
2022/01/21 05:21:54;;;;;;;11.15;2.55;;;1.80;99.90;;;;;;5046111;28;20086;-90
2022/01/21 05:24:21;;;;;;;20.42;2.45;;;1.80;99.90;;;;;;5048554;28;20048;-90
2022/01/21 05:26:56;;;;;;;17.17;1.88;;;1.80;99.90;;;;;;5062660;28;20067;-89
2022/01/21 05:29:24;;;;;;;14.57;2.20;;;1.80;99.90;;;;;;5059667;28;20040;-89
2022/01/21 05:31:50;;;;;;;12.10;1.45;;;1.80;99.90;;;;;;5064257;28;20033;-89
2022/01/21 05:34:16;;;;;;;9.18;1.90;;;1.80;99.90;;;;;;5065801;28;20032;-89
2022/01/21 05:36:41;;;;;;;11.88;1.42;;;1.80;99.90;;;;;;5061676;28;20032;-89
2022/01/21 05:39:08;;;;;;;10.23;1.20;;;1.80;99.90;;;;;;5065730;28;20040;-90
2022/01/21 05:41:34;;;;;;;6.97;1.15;;;1.90;99.90;;;;;;5047982;28;20036;-90
2022/01/21 05:44:07;;;;;;;8.48;1.40;;;1.80;99.90;;;;;;5063813;28;20044;-89
2022/01/21 05:46:57;;;;;;;9.48;1.35;;;1.80;99.90;;;;;;5044543;28;20119;-89
2022/01/21 05:49:24;;;;;;;13.77;1.83;;;1.80;99.90;;;;;;5045838;28;20082;-90
2022/01/21 05:51:52;;;;;;;11.38;1.38;;;1.80;99.90;;;;;;5064248;28;20470;-89
2022/01/21 05:54:25;;;;;;;7.80;1.90;;;1.80;99.90;;;;;;5047345;28;20047;-89
2022/01/21 05:56:51;;;;;;;11.73;1.55;;;1.80;99.90;;;;;;5050491;28;20106;-89
2022/01/21 05:59:17;;;;;;;10.40;1.85;;;1.80;99.90;;;;;;5066675;28;20043;-89
2022/01/21 06:01:42;;;;;;;8.73;1.35;;;1.80;99.90;;;;;;5058917;28;20064;-90
2022/01/21 06:04:08;;;;;;;11.40;2.05;;;1.80;99.90;;;;;;5047023;28;20061;-90
2022/01/21 06:06:34;;;;;;;14.02;1.70;;;1.80;99.90;;;;;;5063194;28;20032;-89
2022/01/21 06:09:01;;;;;;;14.48;1.90;;;1.80;99.90;;;;;;5063890;28;20028;-90
2022/01/21 06:11:26;;;;;;;17.73;1.73;;;1.90;99.90;;;;;;5061572;28;20037;-90
2022/01/21 06:13:52;;;;;;;13.38;2.63;;;1.80;99.90;;;;;;5049779;28;20044;-90
2022/01/21 06:16:18;;;;;;;8.48;1.40;;;1.80;99.90;;;;;;5047895;28;20033;-89
2022/01/21 06:18:45;;;;;;;9.50;1.50;;;1.80;99.90;;;;;;5063336;28;20413;-90
2022/01/21 06:21:11;;;;;;;10.68;1.58;;;1.80;99.90;;;;;;5047065;28;20044;-89
2022/01/21 06:23:37;;;;;;;7.25;1.45;;;1.80;99.90;;;;;;5066914;28;20033;-89
2022/01/21 06:26:03;;;;;;;12.93;1.58;;;1.80;99.90;;;;;;5065113;28;20695;-90
2022/01/21 06:28:29;;;;;;;15.13;1.70;;;1.80;99.90;;;;;;5059444;28;20044;-89
2022/01/21 06:30:55;;;;;;;10.43;1.20;;;1.70;99.90;;;;;;5045659;28;20041;-89
2022/01/21 06:33:20;;;;;;;16.40;1.88;;;1.70;99.90;;;;;;5043862;28;20043;-90
2022/01/21 06:35:50;;;;;;;10.43;1.38;;;1.80;99.90;;;;;;5061790;28;20040;-89
2022/01/21 06:38:20;;;;;;;10.00;1.65;;;1.80;99.90;;;;;;5063995;28;20120;-89
2022/01/21 06:40:47;;;;;;;6.10;1.13;;;1.80;99.90;;;;;;5061835;28;20056;-89
2022/01/21 06:43:13;;;;;;;6.40;1.17;;;1.90;99.90;;;;;;5048204;28;20063;-89
2022/01/21 06:45:40;;;;;;;10.88;1.90;;;1.80;99.90;;;;;;5067406;28;20052;-90
2022/01/21 06:48:05;;;;;;;9.02;1.52;;;1.80;99.90;;;;;;5066806;28;20434;-90
2022/01/21 06:50:37;;;;;;;11.38;1.52;;;1.80;99.90;;;;;;5049586;28;20047;-90
2022/01/21 06:53:03;;;;;;;8.07;1.42;;;1.80;99.90;;;;;;5045595;28;20028;-89
2022/01/21 06:55:29;;;;;;;5.72;1.00;;;1.80;99.90;;;;;;5049097;28;20044;-90
2022/01/21 06:57:54;;;;;;;9.50;1.38;;;1.80;99.90;;;;;;5050088;28;20040;-90
2022/01/21 07:00:21;;;;;;;16.98;1.70;;;1.70;99.90;;;;;;5050849;28;20036;-90
2022/01/21 07:02:48;;;;;;;9.77;1.45;;;1.70;99.90;;;;;;5063487;28;20032;-89
2022/01/21 07:05:14;;;;;;;10.27;1.35;;;1.70;99.90;;;;;;5052546;28;20052;-89
2022/01/21 07:07:40;;;;;;;12.00;1.27;;;1.70;99.90;;;;;;5050069;28;20040;-90
2022/01/21 07:10:07;;;;;;;11.18;1.23;;;1.70;99.90;;;;;;5041106;28;20414;-89
2022/01/21 07:12:34;;;;;;;11.73;1.63;;;1.70;99.90;;;;;;5068754;28;20040;-89
2022/01/21 07:14:59;;;;;;;13.48;1.65;;;1.60;99.90;;;;;;5050096;28;20091;-89
2022/01/21 07:17:25;;;;;;;12.95;1.95;;;1.70;99.90;;;;;;5060387;28;20091;-89
2022/01/21 07:19:51;;;;;;;8.68;1.10;;;1.60;99.90;;;;;;5065402;28;20052;-89
2022/01/21 07:22:16;;;;;;;11.75;1.83;;;1.70;99.90;;;;;;5068724;28;20075;-89
2022/01/21 07:24:42;;;;;;;9.65;1.65;;;1.70;99.90;;;;;;5097272;28;20120;-89
2022/01/21 07:27:07;;;;;;;15.60;1.70;;;1.70;99.90;;;;;;5051469;28;20037;-90
2022/01/21 07:29:33;;;;;;;12.30;1.60;;;1.70;99.90;;;;;;5055150;28;20483;-89
2022/01/21 07:31:59;;;;;;;12.30;1.38;;;1.70;99.90;;;;;;5053311;28;20406;-90
2022/01/21 07:34:26;;;;;;;12.05;1.40;;;1.80;99.90;;;;;;5053084;28;20493;-89
2022/01/21 07:36:53;;;;;;;11.43;1.55;;;1.80;99.90;;;;;;5066310;28;20044;-89
2022/01/21 07:39:20;;;;;;;11.35;2.90;;;1.80;99.90;;;;;;5065354;28;20048;-89
2022/01/21 07:41:45;;;;;;;9.60;1.13;;;1.80;99.90;;;;;;5065064;28;20116;-88
2022/01/21 07:44:12;;;;;;;7.15;1.40;;;1.80;99.90;;;;;;5043875;28;20051;-89
2022/01/21 07:46:40;;;;;;;17.58;2.17;;;1.80;99.90;;;;;;5049230;28;20543;-90
2022/01/21 07:49:06;;;;;;;11.70;1.75;;;1.80;99.90;;;;;;5082269;28;20044;-90
2022/01/21 07:51:31;;;;;;;10.00;1.50;;;1.80;99.90;;;;;;5059858;28;20033;-90
2022/01/21 07:53:57;;;;;;;11.85;1.65;;;1.80;99.90;;;;;;5072444;28;20091;-88
2022/01/21 07:56:23;;;;;;;9.55;1.52;;;1.80;99.90;;;;;;5099863;27;20467;-91
2022/01/21 07:58:49;;;;;;;10.27;1.67;;;1.80;99.90;;;;;;5040318;28;20028;-89
2022/01/21 08:01:15;;;;;;;10.63;1.80;;;1.80;99.90;;;;;;5052417;28;20043;-88
2022/01/21 08:03:41;;;;;;;16.83;2.17;;;1.90;99.90;;;;;;5046348;28;20269;-90
2022/01/21 08:06:06;;;;;;;10.63;2.17;;;1.90;99.90;;;;;;5047007;28;20051;-88
2022/01/21 08:08:32;;;;;;;7.85;2.53;;;1.90;99.90;;;;;;5074430;28;20093;-89
2022/01/21 08:10:57;;;;;;;8.60;1.25;;;1.90;99.90;;;;;;5060192;28;20093;-89
2022/01/21 08:13:23;;;;;;;13.60;1.63;;;1.90;99.90;;;;;;5063515;28;20585;-91
2022/01/21 08:15:49;;;;;;;11.32;1.60;;;2.00;99.90;;;;;;5111262;27;20040;-90
2022/01/21 08:18:15;;;;;;;10.93;2.10;;;2.00;99.90;;;;;;5055326;28;20040;-89
2022/01/21 08:20:43;;;;;;;13.48;1.50;;;2.00;99.90;;;;;;5064766;28;20048;-90
2022/01/21 08:23:10;;;;;;;11.73;1.80;;;2.00;99.90;;;;;;5050272;28;20067;-90
2022/01/21 08:25:35;;;;;;;9.50;2.25;;;2.10;99.90;;;;;;5058458;28;20044;-89
2022/01/21 08:28:01;;;;;;;9.65;1.90;;;2.10;99.90;;;;;;5042940;28;20044;-89
2022/01/21 08:30:27;;;;;;;21.33;2.65;;;2.10;99.90;;;;;;5046411;28;20036;-90
2022/01/21 08:32:52;;;;;;;10.93;2.42;;;2.20;99.90;;;;;;5044212;28;20097;-90
2022/01/21 08:35:18;;;;;;;13.38;2.38;;;2.20;99.90;;;;;;5046732;28;20126;-90
2022/01/21 08:37:44;;;;;;;12.88;2.85;;;2.20;99.90;;;;;;5070192;28;20443;-89
2022/01/21 08:40:10;;;;;;;11.38;1.60;;;2.20;99.90;;;;;;5042987;28;20040;-89
2022/01/21 08:42:36;;;;;;;17.98;2.30;;;2.20;99.90;;;;;;5044910;28;20036;-88
2022/01/21 08:45:02;;;;;;;9.23;1.90;;;2.20;99.90;;;;;;5083410;28;20044;-87
2022/01/21 08:47:27;;;;;;;12.05;1.83;;;2.20;99.90;;;;;;5047511;28;20025;-90
2022/01/21 08:49:53;;;;;;;9.38;1.45;;;2.20;99.90;;;;;;5079255;28;20121;-91
2022/01/21 08:52:21;;;;;;;12.30;1.92;;;2.10;99.90;;;;;;5066084;28;20037;-90
2022/01/21 08:54:50;;;;;;;8.77;1.85;;;2.20;99.90;;;;;;5067308;28;20052;-90
2022/01/21 08:57:16;;;;;;;11.55;1.73;;;2.20;99.90;;;;;;5051193;28;20040;-90
2022/01/21 08:59:43;;;;;;;8.48;1.25;;;2.20;99.90;;;;;;5066099;28;20533;-90
2022/01/21 09:02:09;;;;;;;13.60;1.55;;;2.20;99.90;;;;;;5097614;28;20547;-90
2022/01/21 09:04:35;;;;;;;9.70;1.83;;;2.30;99.90;;;;;;5050567;28;20070;-91
2022/01/21 09:07:01;;;;;;;15.68;1.73;;;2.30;99.90;;;;;;5051357;28;20038;-90
2022/01/21 09:09:28;;;;;;;10.40;1.92;;;2.40;99.90;;;;;;5051780;28;20083;-90
2022/01/21 09:11:59;;;;;;;10.55;1.83;;;2.40;99.90;;;;;;5068667;28;20051;-90
2022/01/21 09:14:29;;;;;;;10.15;1.48;;;2.50;99.90;;;;;;5051075;28;20375;-90
2022/01/21 09:16:56;;;;;;;11.95;1.95;;;2.40;99.90;;;;;;5065979;28;20036;-90
2022/01/21 09:19:22;;;;;;;19.52;2.10;;;2.50;99.90;;;;;;5051066;28;20078;-90
2022/01/21 09:21:51;;;;;;;15.90;1.77;;;2.50;99.90;;;;;;5067426;28;20124;-90
2022/01/21 09:24:17;;;;;;;11.77;1.70;;;2.50;99.90;;;;;;5050810;28;20494;-90
2022/01/21 09:26:43;;;;;;;11.95;1.80;;;2.60;99.90;;;;;;5050726;28;20044;-90
2022/01/21 09:29:09;;;;;;;17.17;2.35;;;2.60;99.90;;;;;;5067195;28;20411;-90
2022/01/21 09:31:35;;;;;;;15.95;2.22;;;2.60;99.90;;;;;;5049897;28;20032;-90
2022/01/21 09:34:00;;;;;;;13.57;3.58;;;2.70;99.90;;;;;;5050920;28;20034;-90
2022/01/21 09:36:26;;;;;;;14.27;2.38;;;2.60;99.90;;;;;;5067052;28;20278;-90
2022/01/21 09:38:51;;;;;;;16.40;2.50;;;2.70;99.90;;;;;;5067681;28;20048;-90
2022/01/21 09:41:18;;;;;;;14.68;2.40;;;2.70;99.90;;;;;;5067242;28;20040;-90
2022/01/21 09:43:49;;;;;;;15.95;2.65;;;2.80;99.90;;;;;;5066986;28;20045;-90
2022/01/21 09:46:15;;;;;;;13.60;1.70;;;2.80;99.90;;;;;;5081513;28;20048;-90
2022/01/21 09:48:54;;;;;;;11.20;2.13;;;2.80;99.90;;;;;;5084339;28;20434;-91
2022/01/21 09:51:20;;;;;;;19.55;2.28;;;2.80;99.90;;;;;;5050446;28;20033;-90
2022/01/21 09:53:46;;;;;;;17.92;2.50;;;2.90;99.90;;;;;;5067601;28;20086;-90
2022/01/21 09:56:14;;;;;;;20.75;2.50;;;2.90;99.90;;;;;;5051031;28;20055;-90
2022/01/21 09:58:42;;;;;;;14.20;2.28;;;2.90;99.90;;;;;;5066324;28;20033;-90
2022/01/21 10:01:09;;;;;;;18.42;2.53;;;3.00;99.90;;;;;;5063542;28;20043;-90
2022/01/21 10:03:35;;;;;;;17.92;2.53;;;3.00;99.90;;;;;;5066945;28;20201;-90
2022/01/21 10:06:06;;;;;;;16.33;2.17;;;3.10;99.90;;;;;;5083885;28;20127;-90
2022/01/21 10:08:38;;;;;;;20.38;3.03;;;3.10;99.90;;;;;;5050605;28;20040;-90
2022/01/21 10:11:03;;;;;;;15.50;2.70;;;3.20;99.90;;;;;;5066872;28;20131;-90
2022/01/21 10:13:31;;;;;;;15.18;3.05;;;3.20;99.90;;;;;;5050334;28;20574;-90
2022/01/21 10:15:57;;;;;;;21.30;3.00;;;3.20;99.90;;;;;;5084264;28;20085;-91
2022/01/21 10:18:23;;;;;;;16.33;2.70;;;3.30;99.90;;;;;;5105870;28;20143;-91
2022/01/21 10:21:12;;;;;;;18.45;2.80;;;3.30;99.90;;;;;;5105133;28;20563;-89
2022/01/21 10:23:41;;;;;;;16.05;2.72;;;3.40;99.90;;;;;;5105723;28;20072;-90
2022/01/21 10:26:12;;;;;;;16.48;2.70;;;3.50;99.90;;;;;;5105654;28;20086;-89
2022/01/21 10:28:41;;;;;;;15.43;2.40;;;3.50;99.90;;;;;;5086444;28;20116;-89
2022/01/21 10:31:10;;;;;;;14.80;1.95;;;3.60;99.90;;;;;;5086251;28;20478;-90
2022/01/21 10:33:42;;;;;;;30.92;3.80;;;3.70;99.90;;;;;;5053870;28;20632;-90
2022/01/21 10:36:25;;;;;;;16.75;2.30;;;3.70;99.90;;;;;;5070857;28;20073;-90
2022/01/21 10:38:56;;;;;;;12.32;2.28;;;3.70;99.90;;;;;;5070586;28;20094;-87
2022/01/21 10:41:30;;;;;;;18.75;2.28;;;3.80;99.90;;;;;;5054381;28;20045;-88
2022/01/21 10:44:11;;;;;;;12.88;2.35;;;3.70;99.90;;;;;;5067319;28;20487;-88
2022/01/21 10:46:40;;;;;;;16.08;2.63;;;3.80;99.90;;;;;;5070899;28;20044;-88
2022/01/21 10:49:15;;;;;;;16.90;3.10;;;3.80;99.90;;;;;;5054203;28;20036;-89
2022/01/21 10:51:49;;;;;;;16.50;2.10;;;3.90;99.90;;;;;;5054305;28;20033;-88
2022/01/21 10:54:21;;;;;;;16.08;2.75;;;3.90;99.90;;;;;;5053919;28;20133;-89
2022/01/21 10:57:07;;;;;;;15.80;2.30;;;3.90;99.90;;;;;;5048170;28;20041;-89
2022/01/21 10:59:52;;;;;;;;;;;4.00;99.90;;;;;;5067635;28;20508;-87
2022/01/21 11:02:33;;;;;;;19.20;2.67;;;4.00;99.90;;;;;;5052751;28;19916;-88
2022/01/21 11:05:03;;;;;;;12.73;2.55;;;4.10;99.90;;;;;;5072261;28;20485;-88
2022/01/21 11:07:47;;;;;;;14.65;2.25;;;4.10;99.90;;;;;;5069664;28;20040;-88
2022/01/21 11:10:36;;;;;;;17.58;2.35;;;4.20;99.90;;;;;;5045384;28;20075;-84
2022/01/21 11:13:12;;;;;;;32.38;3.90;;;4.20;99.90;;;;;;5057620;28;20032;-85
2022/01/21 11:15:49;;;;;;;18.73;4.88;;;4.30;99.90;;;;;;5039977;28;20621;-84
2022/01/21 11:18:18;;;;;;;29.75;3.92;;;4.40;99.90;;;;;;5077109;28;20086;-85
2022/01/21 11:20:49;;;;;;;18.70;3.22;;;4.40;99.90;;;;;;5060066;28;20519;-85
2022/01/21 11:23:21;;;;;;;19.25;3.50;;;4.40;99.90;;;;;;5080436;28;20044;-85
2022/01/21 11:25:58;;;;;;;24.02;3.08;;;4.50;99.90;;;;;;5048003;28;20045;-87
2022/01/21 11:28:40;;;;;;;18.38;3.45;;;4.50;99.90;;;;;;5043942;28;20037;-87
2022/01/21 11:31:07;;;;;;;21.02;3.50;;;4.60;99.90;;;;;;5061720;28;20121;-85
2022/01/21 11:33:34;;;;;;;22.08;3.78;;;4.70;99.90;;;;;;5047571;28;20036;-85
2022/01/21 11:36:00;;;;;;;19.10;3.72;;;4.70;99.90;;;;;;5079536;28;20060;-85
2022/01/21 11:38:28;;;;;;;33.42;4.10;;;4.80;99.90;;;;;;5045821;28;20403;-85
2022/01/21 11:40:54;;;;;;;17.98;3.03;;;4.80;99.90;;;;;;5049864;28;20041;-86
2022/01/21 11:43:20;;;;;;;24.58;3.17;;;4.90;99.90;;;;;;5062031;28;20521;-86
2022/01/21 11:46:16;;;;;;;18.02;3.20;;;4.90;99.90;;;;;;5062374;28;20063;-86
2022/01/21 11:48:51;;;;;;;22.27;3.40;;;4.90;99.90;;;;;;5054671;28;20051;-86
2022/01/21 11:51:20;;;;;;;23.48;3.63;;;5.00;99.90;;;;;;5067574;28;20083;-86
2022/01/21 11:53:49;;;;;;;22.45;3.83;;;5.00;99.90;;;;;;5046566;28;20189;-85
2022/01/21 11:56:35;;;;;;;19.45;3.50;;;5.10;99.90;;;;;;5064540;28;20044;-85
2022/01/21 11:59:04;;;;;;;23.67;3.38;;;5.20;99.90;;;;;;5058834;28;20485;-86
2022/01/21 12:01:33;;;;;;;16.17;3.70;;;5.20;99.90;;;;;;5044144;28;20040;-85
2022/01/21 12:04:03;;;;;;;19.98;3.40;;;5.30;99.90;;;;;;5079013;28;20032;-85
2022/01/21 12:06:34;;;;;;;17.77;3.25;;;5.30;99.90;;;;;;5048574;28;20036;-85
2022/01/21 12:09:03;;;;;;;16.70;3.60;;;5.40;99.90;;;;;;5050456;28;20032;-85
2022/01/21 12:11:38;;;;;;;19.58;2.78;;;5.40;99.90;;;;;;5065695;28;20119;-85
2022/01/21 12:14:27;;;;;;;16.52;3.20;;;5.50;99.90;;;;;;5077237;28;20112;-84
2022/01/21 12:16:59;;;;;;;19.02;3.13;;;5.50;99.90;;;;;;5065069;28;20469;-85
2022/01/21 12:19:35;;;;;;;17.50;2.20;;;5.50;99.90;;;;;;5068868;28;20105;-85
2022/01/21 12:22:15;;;;;;;16.08;2.67;;;5.50;99.90;;;;;;5051138;28;20029;-85
2022/01/21 12:25:02;;;;;;;15.38;2.53;;;5.60;99.90;;;;;;5054250;28;20036;-82
2022/01/21 12:27:27;;;;;;;15.07;2.30;;;5.60;99.90;;;;;;5066349;28;20051;-83
2022/01/21 12:30:26;;;;;;;16.02;2.38;;;5.60;99.90;;;;;;5050473;28;20526;-83
2022/01/21 12:33:02;;;;;;;12.18;2.28;;;5.70;99.90;;;;;;5078686;28;20740;-83
2022/01/21 12:35:29;;;;;;;16.70;2.10;;;5.70;99.90;;;;;;5071483;28;20228;-87
2022/01/21 12:40:56;;;;;;;16.25;2.00;;;5.70;99.90;;;;;;5099085;28;20494;-85
2022/01/21 12:43:48;;;;;;;18.85;2.50;;;5.80;99.90;;;;;;5048895;28;20208;-86
2022/01/21 12:46:16;;;;;;;18.70;2.10;;;5.80;99.90;;;;;;5058358;28;20343;-86
2022/01/21 12:48:44;;;;;;;17.92;2.72;;;5.80;99.90;;;;;;5051123;28;20062;-88
2022/01/21 12:51:19;;;;;;;17.60;2.40;;;5.80;99.90;;;;;;5054480;28;20059;-85
2022/01/21 12:56:52;;;;;;;16.70;2.17;;;5.80;99.90;;;;;;5092214;28;20487;-84
2022/01/21 12:59:20;;;;;;;14.70;2.05;;;5.90;99.90;;;;;;5093899;28;20089;-84
2022/01/21 13:01:47;;;;;;;15.55;2.35;;;5.90;99.90;;;;;;5043466;28;20440;-85
2022/01/21 13:04:21;;;;;;;12.40;2.33;;;5.90;99.90;;;;;;5059502;28;20523;-85
2022/01/21 13:07:05;;;;;;;13.68;2.10;;;6.00;99.90;;;;;;5046079;28;20036;-84
2022/01/21 13:10:01;;;;;;;31.38;4.80;;;6.10;99.90;;;;;;5062585;28;20050;-85
2022/01/21 13:15:42;;;;;;;13.07;1.55;;;6.10;99.90;;;;;;5066077;28;20044;-82
2022/01/21 13:18:09;;;;;;;18.80;1.70;;;6.10;99.90;;;;;;5038400;28;20045;-83
2022/01/21 13:20:37;;;;;;;13.88;3.53;;;6.10;99.90;;;;;;5044278;28;20064;-84
2022/01/21 13:23:04;;;;;;;14.25;2.72;;;6.10;99.90;;;;;;5063391;28;20406;-84
2022/01/21 13:25:31;;;;;;;15.15;2.00;;;6.10;99.90;;;;;;5067019;28;20135;-82
2022/01/21 13:28:01;;;;;;;15.50;2.53;;;6.10;99.90;;;;;;5053484;28;20051;-83
2022/01/21 13:30:31;;;;;;;18.33;2.22;;;6.10;99.90;;;;;;5056394;28;20028;-79
2022/01/21 13:33:00;;;;;;;13.85;1.85;;;6.10;99.90;;;;;;5061719;28;20037;-83
2022/01/21 13:35:26;;;;;;;12.15;1.95;;;6.10;99.90;;;;;;5047101;28;20918;-83
2022/01/21 13:38:11;;;;;;;14.93;2.13;;;6.10;99.90;;;;;;5059587;28;20083;-82
2022/01/21 13:40:46;;;;;;;13.23;2.42;;;6.10;99.90;;;;;;5044311;28;20434;-84
2022/01/21 13:43:18;;;;;;;12.07;2.10;;;6.10;99.90;;;;;;5044559;28;20044;-82
2022/01/21 13:46:00;;;;;;;12.15;2.17;;;6.10;99.90;;;;;;5041820;28;20041;-83
2022/01/21 13:48:28;;;;;;;15.43;2.33;;;6.10;99.90;;;;;;5046734;28;20037;-83
2022/01/21 13:50:55;;;;;;;19.90;2.60;;;6.10;99.90;;;;;;5043324;28;20037;-83
2022/01/21 13:53:24;;;;;;;16.67;2.10;;;6.10;99.90;;;;;;5036917;28;20043;-84